sensor_id;sensor_type;location;lat;lon;timestamp;P1;durP1;ratioP1;P2;durP2;ratioP2
81697;SDS011;71109;52.514;5.708;2023-08-08T00:00:03;6.32;;;3.60;;
81697;SDS011;71109;52.514;5.708;2023-08-08T00:02:29;4.70;;;3.08;;
81697;SDS011;71109;52.514;5.708;2023-08-08T00:04:55;9.93;;;3.67;;
81697;SDS011;71109;52.514;5.708;2023-08-08T00:07:20;8.25;;;3.85;;
81697;SDS011;71109;52.514;5.708;2023-08-08T00:09:45;12.67;;;4.00;;
81697;SDS011;71109;52.514;5.708;2023-08-08T00:12:11;13.00;;;3.90;;
81697;SDS011;71109;52.514;5.708;2023-08-08T00:14:36;14.52;;;3.92;;
81697;SDS011;71109;52.514;5.708;2023-08-08T00:17:01;9.87;;;3.90;;
81697;SDS011;71109;52.514;5.708;2023-08-08T00:19:27;8.65;;;3.95;;
81697;SDS011;71109;52.514;5.708;2023-08-08T00:21:52;9.77;;;4.47;;
81697;SDS011;71109;52.514;5.708;2023-08-08T00:24:18;10.17;;;4.03;;
81697;SDS011;71109;52.514;5.708;2023-08-08T00:26:43;10.50;;;3.67;;
81697;SDS011;71109;52.514;5.708;2023-08-08T00:29:08;11.25;;;3.47;;
81697;SDS011;71109;52.514;5.708;2023-08-08T00:31:33;10.60;;;3.90;;
81697;SDS011;71109;52.514;5.708;2023-08-08T00:33:59;20.77;;;5.47;;
81697;SDS011;71109;52.514;5.708;2023-08-08T00:36:24;14.50;;;4.03;;
81697;SDS011;71109;52.514;5.708;2023-08-08T00:38:50;17.98;;;5.22;;
81697;SDS011;71109;52.514;5.708;2023-08-08T00:41:15;9.95;;;4.13;;
81697;SDS011;71109;52.514;5.708;2023-08-08T00:43:40;14.13;;;4.93;;
81697;SDS011;71109;52.514;5.708;2023-08-08T00:46:06;13.63;;;4.15;;
81697;SDS011;71109;52.514;5.708;2023-08-08T00:48:31;17.10;;;4.97;;
81697;SDS011;71109;52.514;5.708;2023-08-08T00:50:57;16.80;;;4.85;;
81697;SDS011;71109;52.514;5.708;2023-08-08T00:53:22;17.73;;;4.88;;
81697;SDS011;71109;52.514;5.708;2023-08-08T00:55:51;13.55;;;5.28;;
81697;SDS011;71109;52.514;5.708;2023-08-08T00:58:16;13.35;;;5.07;;
81697;SDS011;71109;52.514;5.708;2023-08-08T01:00:42;14.48;;;5.65;;
81697;SDS011;71109;52.514;5.708;2023-08-08T01:03:08;15.30;;;5.40;;
81697;SDS011;71109;52.514;5.708;2023-08-08T01:06:37;12.73;;;5.35;;
81697;SDS011;71109;52.514;5.708;2023-08-08T01:09:07;12.90;;;5.45;;
81697;SDS011;71109;52.514;5.708;2023-08-08T01:11:35;14.27;;;5.13;;
81697;SDS011;71109;52.514;5.708;2023-08-08T01:14:02;17.55;;;5.28;;
81697;SDS011;71109;52.514;5.708;2023-08-08T01:16:28;17.73;;;5.78;;
81697;SDS011;71109;52.514;5.708;2023-08-08T01:18:53;12.70;;;5.68;;
81697;SDS011;71109;52.514;5.708;2023-08-08T01:21:20;11.68;;;6.15;;
81697;SDS011;71109;52.514;5.708;2023-08-08T01:26:32;14.10;;;5.78;;
81697;SDS011;71109;52.514;5.708;2023-08-08T01:28:57;17.70;;;5.80;;
81697;SDS011;71109;52.514;5.708;2023-08-08T01:31:22;19.00;;;6.22;;
81697;SDS011;71109;52.514;5.708;2023-08-08T01:33:48;16.67;;;5.70;;
81697;SDS011;71109;52.514;5.708;2023-08-08T01:36:15;13.25;;;6.03;;
81697;SDS011;71109;52.514;5.708;2023-08-08T01:38:46;20.17;;;5.68;;
81697;SDS011;71109;52.514;5.708;2023-08-08T01:41:12;14.07;;;5.85;;
81697;SDS011;71109;52.514;5.708;2023-08-08T01:43:38;20.98;;;6.95;;
81697;SDS011;71109;52.514;5.708;2023-08-08T01:46:04;18.40;;;6.35;;
81697;SDS011;71109;52.514;5.708;2023-08-08T01:48:30;13.68;;;5.75;;
81697;SDS011;71109;52.514;5.708;2023-08-08T01:50:55;12.40;;;5.35;;
81697;SDS011;71109;52.514;5.708;2023-08-08T01:53:21;12.90;;;4.78;;
81697;SDS011;71109;52.514;5.708;2023-08-08T01:55:46;16.88;;;5.00;;
81697;SDS011;71109;52.514;5.708;2023-08-08T01:58:12;9.93;;;4.70;;
81697;SDS011;71109;52.514;5.708;2023-08-08T02:00:37;9.35;;;3.75;;
81697;SDS011;71109;52.514;5.708;2023-08-08T02:03:03;10.55;;;4.32;;
81697;SDS011;71109;52.514;5.708;2023-08-08T02:05:28;23.73;;;3.95;;
81697;SDS011;71109;52.514;5.708;2023-08-08T02:07:54;12.60;;;3.67;;
81697;SDS011;71109;52.514;5.708;2023-08-08T02:10:19;10.07;;;3.50;;
81697;SDS011;71109;52.514;5.708;2023-08-08T02:12:44;14.65;;;3.88;;
81697;SDS011;71109;52.514;5.708;2023-08-08T02:15:10;8.60;;;3.90;;
81697;SDS011;71109;52.514;5.708;2023-08-08T02:17:37;8.70;;;4.07;;
81697;SDS011;71109;52.514;5.708;2023-08-08T02:20:03;15.25;;;3.60;;
81697;SDS011;71109;52.514;5.708;2023-08-08T02:22:28;10.65;;;2.95;;
81697;SDS011;71109;52.514;5.708;2023-08-08T02:24:54;6.03;;;2.60;;
81697;SDS011;71109;52.514;5.708;2023-08-08T02:27:19;16.77;;;3.00;;
81697;SDS011;71109;52.514;5.708;2023-08-08T02:29:45;7.97;;;3.40;;
81697;SDS011;71109;52.514;5.708;2023-08-08T02:32:10;11.18;;;2.65;;
81697;SDS011;71109;52.514;5.708;2023-08-08T02:34:35;6.23;;;2.53;;
81697;SDS011;71109;52.514;5.708;2023-08-08T02:37:01;10.88;;;2.60;;
81697;SDS011;71109;52.514;5.708;2023-08-08T02:39:26;17.73;;;2.85;;
81697;SDS011;71109;52.514;5.708;2023-08-08T02:41:51;8.02;;;2.28;;
81697;SDS011;71109;52.514;5.708;2023-08-08T02:44:17;8.18;;;3.00;;
81697;SDS011;71109;52.514;5.708;2023-08-08T02:46:44;6.70;;;2.28;;
81697;SDS011;71109;52.514;5.708;2023-08-08T02:49:09;11.32;;;2.35;;
81697;SDS011;71109;52.514;5.708;2023-08-08T02:51:35;6.13;;;3.77;;
81697;SDS011;71109;52.514;5.708;2023-08-08T02:54:00;3.38;;;2.30;;
81697;SDS011;71109;52.514;5.708;2023-08-08T02:56:25;13.25;;;2.20;;
81697;SDS011;71109;52.514;5.708;2023-08-08T02:58:51;2.47;;;2.03;;
81697;SDS011;71109;52.514;5.708;2023-08-08T03:01:16;7.75;;;2.45;;
81697;SDS011;71109;52.514;5.708;2023-08-08T03:03:42;10.95;;;2.25;;
81697;SDS011;71109;52.514;5.708;2023-08-08T03:06:07;11.75;;;2.53;;
81697;SDS011;71109;52.514;5.708;2023-08-08T03:08:33;5.03;;;2.13;;
81697;SDS011;71109;52.514;5.708;2023-08-08T03:10:58;5.72;;;2.20;;
81697;SDS011;71109;52.514;5.708;2023-08-08T03:13:23;10.30;;;2.38;;
81697;SDS011;71109;52.514;5.708;2023-08-08T03:15:49;5.57;;;2.00;;
81697;SDS011;71109;52.514;5.708;2023-08-08T03:18:14;11.07;;;2.50;;
81697;SDS011;71109;52.514;5.708;2023-08-08T03:20:39;3.78;;;1.52;;
81697;SDS011;71109;52.514;5.708;2023-08-08T03:23:05;5.50;;;1.73;;
81697;SDS011;71109;52.514;5.708;2023-08-08T03:25:30;7.00;;;2.63;;
81697;SDS011;71109;52.514;5.708;2023-08-08T03:27:55;6.75;;;1.83;;
81697;SDS011;71109;52.514;5.708;2023-08-08T03:30:21;2.77;;;1.80;;
81697;SDS011;71109;52.514;5.708;2023-08-08T03:32:46;7.75;;;3.47;;
81697;SDS011;71109;52.514;5.708;2023-08-08T03:35:12;6.37;;;1.67;;
81697;SDS011;71109;52.514;5.708;2023-08-08T03:37:37;5.53;;;1.90;;
81697;SDS011;71109;52.514;5.708;2023-08-08T03:40:03;10.63;;;2.10;;
81697;SDS011;71109;52.514;5.708;2023-08-08T03:42:28;6.38;;;1.33;;
81697;SDS011;71109;52.514;5.708;2023-08-08T03:44:54;4.80;;;1.53;;
81697;SDS011;71109;52.514;5.708;2023-08-08T03:47:19;4.73;;;1.50;;
81697;SDS011;71109;52.514;5.708;2023-08-08T03:49:44;7.93;;;1.50;;
81697;SDS011;71109;52.514;5.708;2023-08-08T03:52:10;5.88;;;1.65;;
81697;SDS011;71109;52.514;5.708;2023-08-08T03:54:35;4.72;;;1.30;;
81697;SDS011;71109;52.514;5.708;2023-08-08T03:57:00;2.43;;;1.50;;
81697;SDS011;71109;52.514;5.708;2023-08-08T03:59:26;4.53;;;1.75;;
81697;SDS011;71109;52.514;5.708;2023-08-08T04:01:51;2.60;;;1.30;;
81697;SDS011;71109;52.514;5.708;2023-08-08T04:04:17;4.22;;;1.40;;
81697;SDS011;71109;52.514;5.708;2023-08-08T04:06:42;7.55;;;2.00;;
81697;SDS011;71109;52.514;5.708;2023-08-08T04:09:07;2.20;;;1.35;;
81697;SDS011;71109;52.514;5.708;2023-08-08T04:11:33;5.25;;;1.80;;
81697;SDS011;71109;52.514;5.708;2023-08-08T04:14:00;5.95;;;1.65;;
81697;SDS011;71109;52.514;5.708;2023-08-08T04:16:26;9.27;;;2.83;;
81697;SDS011;71109;52.514;5.708;2023-08-08T04:18:52;4.30;;;1.33;;
81697;SDS011;71109;52.514;5.708;2023-08-08T04:21:17;7.28;;;1.60;;
81697;SDS011;71109;52.514;5.708;2023-08-08T04:23:42;5.97;;;1.55;;
81697;SDS011;71109;52.514;5.708;2023-08-08T04:26:08;6.75;;;1.58;;
81697;SDS011;71109;52.514;5.708;2023-08-08T04:28:33;4.80;;;1.40;;
81697;SDS011;71109;52.514;5.708;2023-08-08T04:30:58;4.17;;;1.50;;
81697;SDS011;71109;52.514;5.708;2023-08-08T04:33:24;8.07;;;1.70;;
81697;SDS011;71109;52.514;5.708;2023-08-08T04:35:49;6.83;;;1.80;;
81697;SDS011;71109;52.514;5.708;2023-08-08T04:38:14;9.33;;;2.00;;
81697;SDS011;71109;52.514;5.708;2023-08-08T04:40:40;7.18;;;1.30;;
81697;SDS011;71109;52.514;5.708;2023-08-08T04:43:06;8.10;;;1.40;;
81697;SDS011;71109;52.514;5.708;2023-08-08T04:45:31;10.05;;;1.92;;
81697;SDS011;71109;52.514;5.708;2023-08-08T04:47:57;6.18;;;1.60;;
81697;SDS011;71109;52.514;5.708;2023-08-08T04:50:22;5.18;;;1.67;;
81697;SDS011;71109;52.514;5.708;2023-08-08T04:52:48;8.70;;;1.23;;
81697;SDS011;71109;52.514;5.708;2023-08-08T04:55:13;6.73;;;1.50;;
81697;SDS011;71109;52.514;5.708;2023-08-08T04:57:39;4.87;;;1.80;;
81697;SDS011;71109;52.514;5.708;2023-08-08T05:00:04;8.87;;;2.27;;
81697;SDS011;71109;52.514;5.708;2023-08-08T05:02:33;5.95;;;1.50;;
81697;SDS011;71109;52.514;5.708;2023-08-08T05:04:58;4.07;;;1.30;;
81697;SDS011;71109;52.514;5.708;2023-08-08T05:07:24;2.97;;;1.33;;
81697;SDS011;71109;52.514;5.708;2023-08-08T05:09:49;1.30;;;0.93;;
81697;SDS011;71109;52.514;5.708;2023-08-08T05:12:14;9.00;;;1.70;;
81697;SDS011;71109;52.514;5.708;2023-08-08T05:14:40;4.85;;;1.30;;
81697;SDS011;71109;52.514;5.708;2023-08-08T05:17:05;7.50;;;1.80;;
81697;SDS011;71109;52.514;5.708;2023-08-08T05:19:30;6.72;;;1.55;;
81697;SDS011;71109;52.514;5.708;2023-08-08T05:21:56;4.85;;;1.33;;
81697;SDS011;71109;52.514;5.708;2023-08-08T05:24:21;5.55;;;1.23;;
81697;SDS011;71109;52.514;5.708;2023-08-08T05:26:47;5.70;;;1.20;;
81697;SDS011;71109;52.514;5.708;2023-08-08T05:29:12;5.10;;;1.23;;
81697;SDS011;71109;52.514;5.708;2023-08-08T05:31:37;14.30;;;1.60;;
81697;SDS011;71109;52.514;5.708;2023-08-08T05:34:03;1.93;;;1.07;;
81697;SDS011;71109;52.514;5.708;2023-08-08T05:36:28;4.35;;;1.15;;
81697;SDS011;71109;52.514;5.708;2023-08-08T05:38:53;7.80;;;1.17;;
81697;SDS011;71109;52.514;5.708;2023-08-08T05:41:19;7.15;;;1.20;;
81697;SDS011;71109;52.514;5.708;2023-08-08T05:43:44;2.00;;;0.85;;
81697;SDS011;71109;52.514;5.708;2023-08-08T05:46:09;2.93;;;0.93;;
81697;SDS011;71109;52.514;5.708;2023-08-08T05:48:35;5.63;;;1.87;;
81697;SDS011;71109;52.514;5.708;2023-08-08T05:51:00;5.97;;;1.00;;
81697;SDS011;71109;52.514;5.708;2023-08-08T05:53:27;4.93;;;0.90;;
81697;SDS011;71109;52.514;5.708;2023-08-08T05:55:53;9.50;;;1.23;;
81697;SDS011;71109;52.514;5.708;2023-08-08T05:58:18;7.82;;;1.65;;
81697;SDS011;71109;52.514;5.708;2023-08-08T06:00:44;8.50;;;1.48;;
81697;SDS011;71109;52.514;5.708;2023-08-08T06:03:09;4.82;;;0.82;;
81697;SDS011;71109;52.514;5.708;2023-08-08T06:05:34;4.10;;;1.77;;
81697;SDS011;71109;52.514;5.708;2023-08-08T06:08:00;7.90;;;1.90;;
81697;SDS011;71109;52.514;5.708;2023-08-08T06:10:25;3.83;;;1.08;;
81697;SDS011;71109;52.514;5.708;2023-08-08T06:12:51;5.13;;;1.27;;
81697;SDS011;71109;52.514;5.708;2023-08-08T06:15:16;8.35;;;1.13;;
81697;SDS011;71109;52.514;5.708;2023-08-08T06:17:42;8.45;;;1.98;;
81697;SDS011;71109;52.514;5.708;2023-08-08T06:20:07;9.93;;;1.10;;
81697;SDS011;71109;52.514;5.708;2023-08-08T06:22:34;4.30;;;0.77;;
81697;SDS011;71109;52.514;5.708;2023-08-08T06:25:00;4.10;;;1.05;;
81697;SDS011;71109;52.514;5.708;2023-08-08T06:27:25;9.33;;;1.20;;
81697;SDS011;71109;52.514;5.708;2023-08-08T06:29:50;6.23;;;0.77;;
81697;SDS011;71109;52.514;5.708;2023-08-08T06:32:16;5.20;;;1.40;;
81697;SDS011;71109;52.514;5.708;2023-08-08T06:34:41;7.63;;;1.63;;
81697;SDS011;71109;52.514;5.708;2023-08-08T06:37:07;4.37;;;1.17;;
81697;SDS011;71109;52.514;5.708;2023-08-08T06:39:32;1.07;;;0.70;;
81697;SDS011;71109;52.514;5.708;2023-08-08T06:41:57;9.45;;;1.13;;
81697;SDS011;71109;52.514;5.708;2023-08-08T06:44:23;3.50;;;0.90;;
81697;SDS011;71109;52.514;5.708;2023-08-08T06:46:48;1.47;;;0.70;;
81697;SDS011;71109;52.514;5.708;2023-08-08T06:49:14;10.82;;;0.90;;
81697;SDS011;71109;52.514;5.708;2023-08-08T06:51:39;2.83;;;0.98;;
81697;SDS011;71109;52.514;5.708;2023-08-08T06:54:04;3.37;;;1.20;;
81697;SDS011;71109;52.514;5.708;2023-08-08T06:56:30;4.40;;;0.90;;
81697;SDS011;71109;52.514;5.708;2023-08-08T06:58:55;3.63;;;0.90;;
81697;SDS011;71109;52.514;5.708;2023-08-08T07:01:20;3.72;;;0.98;;
81697;SDS011;71109;52.514;5.708;2023-08-08T07:03:46;9.30;;;1.50;;
81697;SDS011;71109;52.514;5.708;2023-08-08T07:06:11;3.50;;;1.08;;
81697;SDS011;71109;52.514;5.708;2023-08-08T07:08:37;2.03;;;1.00;;
81697;SDS011;71109;52.514;5.708;2023-08-08T07:11:04;3.28;;;1.05;;
81697;SDS011;71109;52.514;5.708;2023-08-08T07:13:30;4.20;;;1.00;;
81697;SDS011;71109;52.514;5.708;2023-08-08T07:15:56;3.00;;;0.90;;
81697;SDS011;71109;52.514;5.708;2023-08-08T07:18:21;7.23;;;1.17;;
81697;SDS011;71109;52.514;5.708;2023-08-08T07:20:46;4.78;;;1.63;;
81697;SDS011;71109;52.514;5.708;2023-08-08T07:23:12;2.40;;;0.88;;
81697;SDS011;71109;52.514;5.708;2023-08-08T07:25:37;5.70;;;1.00;;
81697;SDS011;71109;52.514;5.708;2023-08-08T07:28:03;2.13;;;0.70;;
81697;SDS011;71109;52.514;5.708;2023-08-08T07:30:28;3.53;;;1.05;;
81697;SDS011;71109;52.514;5.708;2023-08-08T07:32:53;3.08;;;0.80;;
81697;SDS011;71109;52.514;5.708;2023-08-08T07:35:19;4.95;;;0.90;;
81697;SDS011;71109;52.514;5.708;2023-08-08T07:37:45;5.25;;;0.63;;
81697;SDS011;71109;52.514;5.708;2023-08-08T07:40:14;5.22;;;2.30;;
81697;SDS011;71109;52.514;5.708;2023-08-08T07:42:45;4.70;;;0.95;;
81697;SDS011;71109;52.514;5.708;2023-08-08T07:45:11;9.18;;;2.08;;
81697;SDS011;71109;52.514;5.708;2023-08-08T07:47:37;3.15;;;1.38;;
81697;SDS011;71109;52.514;5.708;2023-08-08T07:50:02;3.95;;;1.00;;
81697;SDS011;71109;52.514;5.708;2023-08-08T07:52:28;10.73;;;1.25;;
81697;SDS011;71109;52.514;5.708;2023-08-08T07:54:53;7.47;;;1.13;;
81697;SDS011;71109;52.514;5.708;2023-08-08T07:57:18;4.50;;;1.30;;
81697;SDS011;71109;52.514;5.708;2023-08-08T07:59:44;2.25;;;1.10;;
81697;SDS011;71109;52.514;5.708;2023-08-08T08:02:09;8.27;;;1.38;;
81697;SDS011;71109;52.514;5.708;2023-08-08T08:04:35;6.73;;;0.70;;
81697;SDS011;71109;52.514;5.708;2023-08-08T08:07:00;4.97;;;1.02;;
81697;SDS011;71109;52.514;5.708;2023-08-08T08:09:26;3.00;;;0.90;;
81697;SDS011;71109;52.514;5.708;2023-08-08T08:11:51;5.78;;;1.17;;
81697;SDS011;71109;52.514;5.708;2023-08-08T08:14:16;2.73;;;0.70;;
81697;SDS011;71109;52.514;5.708;2023-08-08T08:16:43;5.05;;;0.85;;
81697;SDS011;71109;52.514;5.708;2023-08-08T08:19:10;2.97;;;1.15;;
81697;SDS011;71109;52.514;5.708;2023-08-08T08:21:35;2.88;;;0.93;;
81697;SDS011;71109;52.514;5.708;2023-08-08T08:24:00;1.85;;;0.65;;
81697;SDS011;71109;52.514;5.708;2023-08-08T08:26:26;5.35;;;0.80;;
81697;SDS011;71109;52.514;5.708;2023-08-08T08:28:52;3.90;;;0.85;;
81697;SDS011;71109;52.514;5.708;2023-08-08T08:31:18;2.95;;;0.80;;
81697;SDS011;71109;52.514;5.708;2023-08-08T08:33:43;7.10;;;1.52;;
81697;SDS011;71109;52.514;5.708;2023-08-08T08:36:09;5.43;;;0.90;;
81697;SDS011;71109;52.514;5.708;2023-08-08T08:38:34;5.67;;;0.60;;
81697;SDS011;71109;52.514;5.708;2023-08-08T08:40:59;3.70;;;0.50;;
81697;SDS011;71109;52.514;5.708;2023-08-08T08:43:27;3.33;;;1.88;;
81697;SDS011;71109;52.514;5.708;2023-08-08T08:45:53;6.50;;;1.25;;
81697;SDS011;71109;52.514;5.708;2023-08-08T08:48:19;2.25;;;0.85;;
81697;SDS011;71109;52.514;5.708;2023-08-08T08:50:47;3.20;;;0.90;;
81697;SDS011;71109;52.514;5.708;2023-08-08T08:53:13;2.63;;;0.98;;
81697;SDS011;71109;52.514;5.708;2023-08-08T08:55:40;2.55;;;1.17;;
81697;SDS011;71109;52.514;5.708;2023-08-08T08:58:06;3.28;;;0.68;;
81697;SDS011;71109;52.514;5.708;2023-08-08T09:00:31;3.67;;;1.13;;
81697;SDS011;71109;52.514;5.708;2023-08-08T09:02:56;1.48;;;0.90;;
81697;SDS011;71109;52.514;5.708;2023-08-08T09:05:22;4.68;;;0.88;;
81697;SDS011;71109;52.514;5.708;2023-08-08T09:07:50;2.17;;;0.82;;
81697;SDS011;71109;52.514;5.708;2023-08-08T09:10:17;2.80;;;0.90;;
81697;SDS011;71109;52.514;5.708;2023-08-08T09:12:43;2.17;;;0.90;;
81697;SDS011;71109;52.514;5.708;2023-08-08T09:15:09;2.67;;;0.70;;
81697;SDS011;71109;52.514;5.708;2023-08-08T09:17:35;2.83;;;0.90;;
81697;SDS011;71109;52.514;5.708;2023-08-08T09:20:01;5.57;;;0.85;;
81697;SDS011;71109;52.514;5.708;2023-08-08T09:22:26;6.43;;;0.98;;
81697;SDS011;71109;52.514;5.708;2023-08-08T09:24:53;3.47;;;0.90;;
81697;SDS011;71109;52.514;5.708;2023-08-08T09:27:20;5.20;;;0.77;;
81697;SDS011;71109;52.514;5.708;2023-08-08T09:29:45;2.70;;;0.90;;
81697;SDS011;71109;52.514;5.708;2023-08-08T09:32:11;2.38;;;0.80;;
81697;SDS011;71109;52.514;5.708;2023-08-08T09:34:37;4.53;;;0.90;;
81697;SDS011;71109;52.514;5.708;2023-08-08T09:37:06;3.70;;;0.88;;
81697;SDS011;71109;52.514;5.708;2023-08-08T09:39:31;6.47;;;1.30;;
81697;SDS011;71109;52.514;5.708;2023-08-08T09:41:57;1.38;;;0.70;;
81697;SDS011;71109;52.514;5.708;2023-08-08T09:44:23;4.20;;;1.10;;
81697;SDS011;71109;52.514;5.708;2023-08-08T09:46:49;3.13;;;0.70;;
81697;SDS011;71109;52.514;5.708;2023-08-08T09:49:15;1.83;;;0.68;;
81697;SDS011;71109;52.514;5.708;2023-08-08T09:51:40;4.07;;;1.13;;
81697;SDS011;71109;52.514;5.708;2023-08-08T09:54:06;4.75;;;1.65;;
81697;SDS011;71109;52.514;5.708;2023-08-08T09:56:32;3.65;;;1.35;;
81697;SDS011;71109;52.514;5.708;2023-08-08T09:58:58;5.97;;;1.40;;
81697;SDS011;71109;52.514;5.708;2023-08-08T10:01:24;7.72;;;1.10;;
81697;SDS011;71109;52.514;5.708;2023-08-08T10:03:51;4.82;;;1.15;;
81697;SDS011;71109;52.514;5.708;2023-08-08T10:06:17;6.38;;;1.38;;
81697;SDS011;71109;52.514;5.708;2023-08-08T10:08:43;4.38;;;1.20;;
81697;SDS011;71109;52.514;5.708;2023-08-08T10:11:08;0.95;;;0.85;;
81697;SDS011;71109;52.514;5.708;2023-08-08T10:13:35;3.67;;;1.00;;
81697;SDS011;71109;52.514;5.708;2023-08-08T10:16:03;8.80;;;2.03;;
81697;SDS011;71109;52.514;5.708;2023-08-08T10:18:29;4.60;;;1.17;;
81697;SDS011;71109;52.514;5.708;2023-08-08T10:20:55;6.55;;;1.10;;
81697;SDS011;71109;52.514;5.708;2023-08-08T10:23:22;5.38;;;1.30;;
81697;SDS011;71109;52.514;5.708;2023-08-08T10:25:50;3.53;;;1.15;;
81697;SDS011;71109;52.514;5.708;2023-08-08T10:28:17;2.67;;;1.08;;
81697;SDS011;71109;52.514;5.708;2023-08-08T10:30:47;5.18;;;1.30;;
81697;SDS011;71109;52.514;5.708;2023-08-08T10:33:19;4.90;;;1.13;;
81697;SDS011;71109;52.514;5.708;2023-08-08T10:38:23;3.05;;;1.30;;
81697;SDS011;71109;52.514;5.708;2023-08-08T10:40:56;5.90;;;1.40;;
81697;SDS011;71109;52.514;5.708;2023-08-08T10:43:26;3.67;;;1.02;;
81697;SDS011;71109;52.514;5.708;2023-08-08T10:45:53;8.45;;;1.20;;
81697;SDS011;71109;52.514;5.708;2023-08-08T10:48:22;5.57;;;0.98;;
81697;SDS011;71109;52.514;5.708;2023-08-08T10:50:47;6.93;;;1.30;;
81697;SDS011;71109;52.514;5.708;2023-08-08T10:53:12;6.78;;;1.30;;
81697;SDS011;71109;52.514;5.708;2023-08-08T10:55:38;3.78;;;2.17;;
81697;SDS011;71109;52.514;5.708;2023-08-08T10:58:05;2.72;;;1.20;;
81697;SDS011;71109;52.514;5.708;2023-08-08T11:00:33;8.45;;;1.38;;
81697;SDS011;71109;52.514;5.708;2023-08-08T11:03:00;3.35;;;1.00;;
81697;SDS011;71109;52.514;5.708;2023-08-08T11:05:27;2.50;;;1.05;;
81697;SDS011;71109;52.514;5.708;2023-08-08T11:07:53;4.05;;;1.05;;
81697;SDS011;71109;52.514;5.708;2023-08-08T11:10:21;3.30;;;1.35;;
81697;SDS011;71109;52.514;5.708;2023-08-08T11:12:57;3.90;;;1.35;;
81697;SDS011;71109;52.514;5.708;2023-08-08T11:15:25;5.47;;;1.02;;
81697;SDS011;71109;52.514;5.708;2023-08-08T11:17:52;2.88;;;0.82;;
81697;SDS011;71109;52.514;5.708;2023-08-08T11:20:18;3.95;;;0.90;;
81697;SDS011;71109;52.514;5.708;2023-08-08T11:22:44;7.53;;;1.20;;
81697;SDS011;71109;52.514;5.708;2023-08-08T11:25:09;3.13;;;1.20;;
81697;SDS011;71109;52.514;5.708;2023-08-08T11:27:34;3.40;;;1.10;;
81697;SDS011;71109;52.514;5.708;2023-08-08T11:30:00;7.40;;;1.08;;
81697;SDS011;71109;52.514;5.708;2023-08-08T11:32:26;9.43;;;1.40;;
81697;SDS011;71109;52.514;5.708;2023-08-08T11:34:53;7.75;;;1.50;;
81697;SDS011;71109;52.514;5.708;2023-08-08T11:37:19;1.33;;;0.77;;
81697;SDS011;71109;52.514;5.708;2023-08-08T11:39:44;4.05;;;0.95;;
81697;SDS011;71109;52.514;5.708;2023-08-08T11:42:10;9.20;;;1.40;;
81697;SDS011;71109;52.514;5.708;2023-08-08T11:44:35;4.10;;;0.88;;
81697;SDS011;71109;52.514;5.708;2023-08-08T11:47:01;2.60;;;0.98;;
81697;SDS011;71109;52.514;5.708;2023-08-08T11:49:27;1.95;;;1.25;;
81697;SDS011;71109;52.514;5.708;2023-08-08T11:51:53;3.63;;;1.47;;
81697;SDS011;71109;52.514;5.708;2023-08-08T11:54:20;2.92;;;0.82;;
81697;SDS011;71109;52.514;5.708;2023-08-08T11:56:46;2.88;;;1.40;;
81697;SDS011;71109;52.514;5.708;2023-08-08T11:59:11;3.53;;;0.98;;
81697;SDS011;71109;52.514;5.708;2023-08-08T12:01:37;2.28;;;0.80;;
81697;SDS011;71109;52.514;5.708;2023-08-08T12:04:07;3.33;;;1.10;;
81697;SDS011;71109;52.514;5.708;2023-08-08T12:06:32;2.28;;;1.20;;
81697;SDS011;71109;52.514;5.708;2023-08-08T12:09:00;5.25;;;1.23;;
81697;SDS011;71109;52.514;5.708;2023-08-08T12:11:26;2.38;;;1.55;;
81697;SDS011;71109;52.514;5.708;2023-08-08T12:13:57;4.50;;;1.02;;
81697;SDS011;71109;52.514;5.708;2023-08-08T12:16:27;2.38;;;1.02;;
81697;SDS011;71109;52.514;5.708;2023-08-08T12:18:53;6.20;;;0.90;;
81697;SDS011;71109;52.514;5.708;2023-08-08T12:21:18;5.80;;;1.08;;
81697;SDS011;71109;52.514;5.708;2023-08-08T12:23:44;4.47;;;1.27;;
81697;SDS011;71109;52.514;5.708;2023-08-08T12:26:09;4.20;;;0.68;;
81697;SDS011;71109;52.514;5.708;2023-08-08T12:28:35;6.43;;;1.08;;
81697;SDS011;71109;52.514;5.708;2023-08-08T12:31:00;4.20;;;1.10;;
81697;SDS011;71109;52.514;5.708;2023-08-08T12:33:26;3.35;;;0.90;;
81697;SDS011;71109;52.514;5.708;2023-08-08T12:35:51;8.25;;;1.40;;
81697;SDS011;71109;52.514;5.708;2023-08-08T12:38:17;1.38;;;0.90;;
81697;SDS011;71109;52.514;5.708;2023-08-08T12:40:43;9.63;;;1.35;;
81697;SDS011;71109;52.514;5.708;2023-08-08T12:43:10;3.58;;;1.25;;
81697;SDS011;71109;52.514;5.708;2023-08-08T12:45:38;2.50;;;1.25;;
81697;SDS011;71109;52.514;5.708;2023-08-08T12:48:04;5.18;;;1.20;;
81697;SDS011;71109;52.514;5.708;2023-08-08T12:50:30;3.80;;;0.90;;
81697;SDS011;71109;52.514;5.708;2023-08-08T12:52:55;3.40;;;1.00;;
81697;SDS011;71109;52.514;5.708;2023-08-08T12:55:20;6.68;;;1.00;;
81697;SDS011;71109;52.514;5.708;2023-08-08T12:57:46;3.67;;;1.13;;
81697;SDS011;71109;52.514;5.708;2023-08-08T13:00:11;2.95;;;1.10;;
81697;SDS011;71109;52.514;5.708;2023-08-08T13:02:37;1.50;;;1.00;;
81697;SDS011;71109;52.514;5.708;2023-08-08T13:05:03;2.75;;;0.95;;
81697;SDS011;71109;52.514;5.708;2023-08-08T13:07:31;8.63;;;1.25;;
81697;SDS011;71109;52.514;5.708;2023-08-08T13:09:57;3.58;;;1.25;;
81697;SDS011;71109;52.514;5.708;2023-08-08T13:12:22;4.35;;;0.90;;
81697;SDS011;71109;52.514;5.708;2023-08-08T13:14:48;2.55;;;1.17;;
81697;SDS011;71109;52.514;5.708;2023-08-08T13:17:13;3.63;;;1.00;;
81697;SDS011;71109;52.514;5.708;2023-08-08T13:19:39;5.68;;;1.05;;
81697;SDS011;71109;52.514;5.708;2023-08-08T13:22:05;1.17;;;1.00;;
81697;SDS011;71109;52.514;5.708;2023-08-08T13:24:30;4.85;;;0.90;;
81697;SDS011;71109;52.514;5.708;2023-08-08T13:26:55;1.50;;;1.00;;
81697;SDS011;71109;52.514;5.708;2023-08-08T13:29:21;3.33;;;1.27;;
81697;SDS011;71109;52.514;5.708;2023-08-08T13:31:46;2.05;;;1.02;;
81697;SDS011;71109;52.514;5.708;2023-08-08T13:34:12;5.25;;;1.30;;
81697;SDS011;71109;52.514;5.708;2023-08-08T13:36:37;5.60;;;1.30;;
81697;SDS011;71109;52.514;5.708;2023-08-08T13:39:03;5.32;;;1.15;;
81697;SDS011;71109;52.514;5.708;2023-08-08T13:41:29;4.70;;;1.33;;
81697;SDS011;71109;52.514;5.708;2023-08-08T13:43:55;6.53;;;1.60;;
81697;SDS011;71109;52.514;5.708;2023-08-08T13:46:20;5.57;;;1.10;;
81697;SDS011;71109;52.514;5.708;2023-08-08T13:48:46;5.30;;;0.98;;
81697;SDS011;71109;52.514;5.708;2023-08-08T13:51:11;4.00;;;1.17;;
81697;SDS011;71109;52.514;5.708;2023-08-08T13:53:36;3.55;;;1.05;;
81697;SDS011;71109;52.514;5.708;2023-08-08T13:56:02;7.90;;;1.87;;
81697;SDS011;71109;52.514;5.708;2023-08-08T13:58:27;11.50;;;1.65;;
81697;SDS011;71109;52.514;5.708;2023-08-08T14:00:54;5.22;;;1.40;;
81697;SDS011;71109;52.514;5.708;2023-08-08T14:03:20;5.22;;;1.35;;
81697;SDS011;71109;52.514;5.708;2023-08-08T14:05:45;3.10;;;0.80;;
81697;SDS011;71109;52.514;5.708;2023-08-08T14:08:11;3.95;;;1.58;;
81697;SDS011;71109;52.514;5.708;2023-08-08T14:10:36;7.55;;;1.50;;
81697;SDS011;71109;52.514;5.708;2023-08-08T14:13:02;7.30;;;1.50;;
81697;SDS011;71109;52.514;5.708;2023-08-08T14:15:27;6.53;;;1.52;;
81697;SDS011;71109;52.514;5.708;2023-08-08T14:17:53;7.82;;;2.28;;
81697;SDS011;71109;52.514;5.708;2023-08-08T14:20:19;1.92;;;0.90;;
81697;SDS011;71109;52.514;5.708;2023-08-08T14:22:45;3.87;;;1.00;;
81697;SDS011;71109;52.514;5.708;2023-08-08T14:25:13;4.72;;;1.75;;
81697;SDS011;71109;52.514;5.708;2023-08-08T14:27:39;3.05;;;1.20;;
81697;SDS011;71109;52.514;5.708;2023-08-08T14:30:05;5.47;;;1.42;;
81697;SDS011;71109;52.514;5.708;2023-08-08T14:32:31;6.70;;;1.25;;
81697;SDS011;71109;52.514;5.708;2023-08-08T14:34:56;5.50;;;0.98;;
81697;SDS011;71109;52.514;5.708;2023-08-08T14:37:22;4.43;;;0.93;;
81697;SDS011;71109;52.514;5.708;2023-08-08T14:39:47;6.73;;;1.40;;
81697;SDS011;71109;52.514;5.708;2023-08-08T14:42:13;3.58;;;1.23;;